Terminal Aerodrome Forecast
Issued by NWS Cleveland, OH

Home | Current Version | Previous Version | Text Only | Print | Product List | Glossary Off
Versions: 1 2 3 4 5 6 7 8 9 10 11 12 13 14 15

748
FTUS41 KCLE 061720
TAFCAK
TAF
KCAK 061720Z 0618/0718 12012G20KT 3SM -RA BR OVC020
      TEMPO 0618/0622 2SM RA BR OVC008
     FM070000 26012KT P6SM OVC015
     FM070900 25010KT P6SM OVC025
     FM071600 25010KT P6SM SCT025 OVC120=

USA.gov is the U.S. government's official web portal to all federal, state and local government web resources and services.